Ana Sayfa
METAR-TAF:

METAR-TAF

Havaalanları :

Destin-Fort Walton Beach Airport

Destin, Florida, Amerika Birleşik Devletleri

Enlem: 30-23-36N, Boylam: 086-28-03W, yükseklik: 6 m

Güncel hava durumu gözlemi

Rapor saat 16:53 UTC de 1 saat ve 3 dakika önce yapıldı.
Rüzgar değişken yönden 5 kt
Sıcaklık 32°C
Nem 67%
Basınç 1015 hPa
Görüş mesafesi: 16.1 km
Açık gökyüzü

METAR: KDTS 251653Z VRB05KT 10SM CLR 32/25 A2997 RMK AO2 SLP147 T03220250

Saat: 12:56 (17:56 UTC)


TAF: eksik

4.000'den fazla havaalanı için hava durumu gözlemleri ve tahminleri (METAR ve TAF raporları).

Kullanılabilir istasyonlar harita üzerinde sarı ve kırmızı noktalarla gösterilir.

İstasyonun adını görmek için fareyi noktanın üzerinde gezdirin.

Sonrasında hava gözlem ve tahminlerini görmek için tıklayın.

Haritayı değiştirmek için: yaklaştırmak için siyah artı işaretli yeşil düğmeye ve uzaklaştırmak için de eksi işaretli düğmeye hızla tıklayın; bitişik haritalar için yeşil okları kullanın.


METAR-TAF: